Meteo Giornale » Osservazioni meteo Italia » Milano-Malpensa

ore: 14:50 - Osservazioni Meteo Milano-Malpensa
Lat. 45° 37' N Lon. 8° 44' E Alt. 234 metri s.l.m.

sereno Europe/Rome

7 °C

Sereno

Temp. 24 Ore

-3 °C

13 °C

Nord

1.8 Km/h

Dew point -1 °C

Umidità 56 %

Visibilità  10 Km

Il sole sorge alle ore 07:53

Il sole tramonta alle ore 16:42

Data e Ora Cielo e Fenomeni T °C DP °C Um. % Pres. hPa Vis. km Vento km/h
Oggi h: 14:50 sereno Sereno 7 -1 56 1014 10 N 1.8
Oggi h: 14:20 sereno Sereno 7 -2 52 1014 10 N 1.8
Oggi h: 13:50 sereno Sereno 7 -2 52 1015 10 N 3.7
Oggi h: 13:20 sereno Sereno 7 -2 52 1015 10 N 5.5
Oggi h: 12:50 sereno Sereno 7 -2 52 1016 10 N 1.8
Oggi h: 12:20 sereno Sereno 7 -2 52 1016 10 N 3.7
Oggi h: 11:50 sereno Sereno 7 -2 52 1017 10 N 1.8
Oggi h: 11:20 sereno Sereno 6 -2 56 1017 10 N 5.5
Oggi h: 10:50 sereno Sereno 6 -2 56 1018 10 N 5.5
Oggi h: 10:20 sereno Sereno 5 -2 60 1019 10 N 5.5
Oggi h: 09:50 sereno Sereno 5 -2 60 1019 10 N/NE 7.4
Oggi h: 09:20 sereno Sereno 4 -2 64 1019 10 N 9.3
Oggi h: 08:50 sereno Sereno 1 -2 80 1019 10 N 9.3
Oggi h: 08:20 sereno Sereno -2 -4 86 1019 10 N 11.1
Oggi h: 07:50 sereno Sereno -3 -5 86 1019 10 N 7.4
Oggi h: 07:20 sereno Sereno -2 -5 79 1019 10 N 11.1
Oggi h: 06:50 sereno Sereno -1 -5 74 1019 10 N 9.3
Oggi h: 06:20 sereno Sereno -3 -6 79 1019 10 N 11.1
Oggi h: 05:50 sereno Sereno -2 -5 79 1019 10 N 13
Oggi h: 05:20 sereno Sereno -2 -5 79 1019 10 N 11.1
Oggi h: 04:50 sereno Sereno -2 -6 73 1020 10 N/NE 7.4
Oggi h: 04:20 sereno Sereno -2 -6 73 1020 10 E 7.4
Oggi h: 03:50 sereno Sereno -3 -5 86 1020 10 N/NE 11.1
Oggi h: 03:20 sereno Sereno -2 -5 79 1021 10 N/NE 11.1
Oggi h: 02:50 sereno Sereno -3 -6 79 1021 10 N 7.4
Oggi h: 02:20 sereno Sereno -3 -6 79 1021 10 N 11.1
Oggi h: 01:50 sereno Sereno -2 -6 73 1021 10 N 13
Oggi h: 01:20 sereno Sereno -2 -6 73 1022 10 N 13
Oggi h: 00:50 sereno Sereno -2 -6 73 1022 10 N 5.5
Oggi h: 00:20 sereno Sereno -1 -5 74 1022 10 N/NE 7.4
Ieri h: 23:50 sereno Sereno 1 -5 64 1022 10 N 5.5
Ieri h: 23:20 sereno Sereno 1 -5 64 1022 10 N 13
Ieri h: 22:50 sereno Sereno 1 -6 59 1021 10 N/NE 11.1
Ieri h: 22:20 sereno Sereno -0 -7 59 1021 10 N/NE 11.1
Ieri h: 21:50 sereno Sereno -1 -7 63 1021 10 N 11.1
Ieri h: 21:20 sereno Sereno -1 -7 63 1021 10 N/NE 7.4
Ieri h: 20:50 sereno Sereno -1 -8 58 1021 10 N/NE 14.8
Ieri h: 20:20 sereno Sereno 0 -8 54 1020 10 N/NE 11.1
Ieri h: 19:50 sereno Sereno 1 -8 50 1020 10 N/NE 14.8
Ieri h: 19:20 sereno Sereno 2 -8 47 1020 10 N/NO 9.3
Ieri h: 18:50 sereno Sereno 3 -9 40 1019 10 N/NE 7.4
Ieri h: 18:20 sereno Sereno 6 -10 30 1019 10 O/SO 9.3
Ieri h: 17:50 sereno Sereno 9 -11 22 1019 10 N 3.7
Ieri h: 17:20 sereno Sereno 8 -11 24 1018 10 N 13
Ieri h: 16:50 sereno Sereno 12 -13 16 1019 10 N 5.5
Ieri h: 16:20 sereno Sereno 12 -12 17 1018 10 N 11.1
Ieri h: 15:50 sereno Sereno 13 -12 16 1018 10 N/NE 18.5
Ieri h: 15:20 sereno Sereno 13 -12 16 1018 10 N 20.3
Ieri h: 14:50 sereno Sereno 13 -12 16 1019 10 N 14.8